createdAt,value
2019-03-28T00:04:58.823Z,0.47
2019-03-28T00:10:02.737Z,0.63
2019-03-28T00:15:08.182Z,0.53
2019-03-28T00:20:12.046Z,0.60
2019-03-28T00:25:19.630Z,0.50
2019-03-28T00:30:23.097Z,0.50
2019-03-28T00:35:26.549Z,0.70
2019-03-28T00:40:30.276Z,0.50
2019-03-28T00:45:33.844Z,0.70
2019-03-28T00:50:37.303Z,0.42
2019-03-28T00:55:40.764Z,0.53
2019-03-28T01:00:44.227Z,0.60
2019-03-28T01:05:48.317Z,0.40
2019-03-28T01:10:51.776Z,0.62
2019-03-28T01:15:55.233Z,0.47
2019-03-28T01:20:58.692Z,0.50
2019-03-28T01:26:02.147Z,0.50
2019-03-28T01:31:05.605Z,0.50
2019-03-28T01:36:09.060Z,0.50
2019-03-28T01:41:12.524Z,0.55
2019-03-28T01:46:15.986Z,0.60
2019-03-28T01:51:19.449Z,0.60
2019-03-28T01:56:25.110Z,0.45
2019-03-28T02:01:28.126Z,0.50
2019-03-28T02:06:31.590Z,0.47
2019-03-28T02:11:35.058Z,0.50
2019-03-28T02:16:38.522Z,0.45
2019-03-28T02:21:41.988Z,0.55
2019-03-28T02:26:45.450Z,0.40
2019-03-28T02:31:48.907Z,0.50
2019-03-28T02:36:52.367Z,0.40
2019-03-28T02:41:55.820Z,0.37
2019-03-28T02:46:59.278Z,0.50
2019-03-28T02:52:02.773Z,0.60
2019-03-28T02:57:06.193Z,0.50
2019-03-28T03:02:09.650Z,0.40
2019-03-28T03:07:13.107Z,0.33
2019-03-28T03:12:16.562Z,0.50
2019-03-28T03:17:20.016Z,0.53
2019-03-28T03:22:23.474Z,0.50
2019-03-28T03:27:26.937Z,0.40
2019-03-28T03:32:30.397Z,0.40
2019-03-28T03:37:33.847Z,0.30
2019-03-28T03:42:37.374Z,0.37
2019-03-28T03:47:40.831Z,0.40
2019-03-28T03:52:44.295Z,0.50
2019-03-28T03:57:47.759Z,0.47
2019-03-28T04:02:51.236Z,0.40
2019-03-28T04:07:54.682Z,0.40
2019-03-28T04:12:58.168Z,0.40
2019-03-28T04:18:01.606Z,0.40
2019-03-28T04:23:05.066Z,0.67
2019-03-28T04:28:08.539Z,0.60
2019-03-28T04:33:12.081Z,0.40
2019-03-28T04:38:15.519Z,0.30
2019-03-28T04:43:18.986Z,0.30
2019-03-28T04:48:22.436Z,0.30
2019-03-28T04:53:25.902Z,0.40
2019-03-28T04:58:29.365Z,0.47
2019-03-28T05:03:32.822Z,0.60
2019-03-28T05:08:36.286Z,0.57
2019-03-28T05:13:39.750Z,0.40
2019-03-28T05:18:43.213Z,0.50
2019-03-28T05:23:46.676Z,0.50
2019-03-28T05:28:57.531Z,0.50
2019-03-28T05:33:55.311Z,0.30
2019-03-28T05:38:58.800Z,0.60
2019-03-28T05:44:02.287Z,0.50
2019-03-28T05:49:05.739Z,0.50
2019-03-28T05:54:09.230Z,0.90
2019-03-28T05:59:12.709Z,0.60
2019-03-28T06:04:16.183Z,0.40
2019-03-28T06:09:19.667Z,0.57
2019-03-28T06:14:23.146Z,0.40
2019-03-28T06:19:26.632Z,0.45
2019-03-28T06:24:30.100Z,0.50
2019-03-28T06:29:33.575Z,0.50
2019-03-28T06:34:37.045Z,0.60
2019-03-28T06:39:40.518Z,0.40
2019-03-28T06:44:43.992Z,0.60
2019-03-28T06:49:47.450Z,0.30
2019-03-28T06:54:50.925Z,0.57
2019-03-28T06:59:54.387Z,0.55
2019-03-28T07:04:57.844Z,0.40
2019-03-28T07:10:02.587Z,0.47
2019-03-28T07:15:08.149Z,0.30
2019-03-28T07:20:12.049Z,0.40
2019-03-28T07:25:15.503Z,0.50
2019-03-28T07:30:19.658Z,0.50
2019-03-28T07:35:23.162Z,0.40
2019-03-28T07:40:26.697Z,0.40
2019-03-28T07:45:30.153Z,4.20
2019-03-28T07:50:33.682Z,5.50
2019-03-28T07:55:37.146Z,5.40
2019-03-28T08:00:40.603Z,5.53
2019-03-28T08:05:44.060Z,5.87
2019-03-28T08:10:47.541Z,5.40
2019-03-28T08:15:51.023Z,5.33
2019-03-28T08:20:54.493Z,5.58
2019-03-28T08:25:57.976Z,4.42
2019-03-28T08:31:01.721Z,4.60
2019-03-28T08:36:05.609Z,3.08
2019-03-28T08:41:09.083Z,3.10
2019-03-28T08:46:12.560Z,2.67
2019-03-28T08:51:16.039Z,2.72
2019-03-28T08:56:19.516Z,2.60
2019-03-28T09:01:23.904Z,1.98
2019-03-28T09:06:27.366Z,1.60
2019-03-28T09:11:30.842Z,1.10
2019-03-28T09:16:34.318Z,1.52
2019-03-28T09:21:37.804Z,1.70
2019-03-28T09:26:41.285Z,1.72
2019-03-28T09:31:44.762Z,1.20
2019-03-28T09:36:48.241Z,0.98
2019-03-28T09:41:51.712Z,1.45
2019-03-28T09:46:55.844Z,1.20
2019-03-28T09:51:59.840Z,1.02
2019-03-28T09:57:03.311Z,1.00
2019-03-28T10:02:06.791Z,1.33
2019-03-28T10:07:10.264Z,0.90
2019-03-28T10:12:13.747Z,1.20
2019-03-28T10:17:17.224Z,1.20
2019-03-28T10:22:22.330Z,1.00
2019-03-28T10:27:26.057Z,1.37
2019-03-28T10:32:29.539Z,1.12
2019-03-28T10:37:33.018Z,1.35
2019-03-28T10:42:36.487Z,1.30
2019-03-28T10:47:40.040Z,1.42
2019-03-28T10:52:43.518Z,0.77
2019-03-28T10:57:46.992Z,1.47
2019-03-28T11:02:50.540Z,1.22
2019-03-28T11:07:54.041Z,1.40
2019-03-28T11:12:57.516Z,1.30
2019-03-28T11:18:00.987Z,1.40
2019-03-28T11:23:04.463Z,1.93
2019-03-28T11:28:07.993Z,1.20
2019-03-28T11:33:11.417Z,1.40
2019-03-28T11:38:14.888Z,1.57
2019-03-28T11:43:18.364Z,1.30
2019-03-28T11:48:21.840Z,1.40
2019-03-28T11:53:25.321Z,1.40
2019-03-28T11:58:28.787Z,1.10
2019-03-28T12:03:32.260Z,1.27
2019-03-28T12:08:35.732Z,1.17
2019-03-28T12:13:44.977Z,1.10
2019-03-28T12:18:44.414Z,1.22
2019-03-28T12:23:47.902Z,1.40
2019-03-28T12:28:51.365Z,1.35
2019-03-28T12:33:54.841Z,1.00
2019-03-28T12:38:58.315Z,1.30
2019-03-28T12:44:01.784Z,1.10
2019-03-28T12:49:05.265Z,3.30
2019-03-28T12:54:10.063Z,0.90
2019-03-28T12:59:14.704Z,1.10
2019-03-28T13:04:18.562Z,1.00
2019-03-28T13:09:22.049Z,1.07
2019-03-28T13:14:25.519Z,1.00
2019-03-28T13:19:28.989Z,1.07
2019-03-28T13:24:32.446Z,1.17
2019-03-28T13:29:35.904Z,0.93
2019-03-28T13:34:39.361Z,1.00
2019-03-28T13:39:43.669Z,1.00
2019-03-28T13:44:47.127Z,1.03
2019-03-28T13:49:50.584Z,1.20
2019-03-28T13:54:54.049Z,1.00
2019-03-28T13:59:57.503Z,0.95
2019-03-28T14:05:00.962Z,0.90
2019-03-28T14:10:07.561Z,0.87
2019-03-28T14:15:11.729Z,0.90
2019-03-28T14:20:15.829Z,0.70
2019-03-28T14:25:19.288Z,1.00
2019-03-28T14:30:22.752Z,0.60
2019-03-28T14:35:26.208Z,1.00
2019-03-28T14:40:29.736Z,0.72
2019-03-28T14:45:33.192Z,1.10
2019-03-28T14:50:38.383Z,0.93
2019-03-28T14:55:41.848Z,0.80
2019-03-28T15:00:53.433Z,9.78
2019-03-28T15:05:56.861Z,13.18
2019-03-28T15:11:01.017Z,8.20
2019-03-28T15:16:04.995Z,6.77
2019-03-28T15:21:08.453Z,4.80
2019-03-28T15:26:11.939Z,4.50
2019-03-28T15:31:15.373Z,4.20
2019-03-28T15:36:18.837Z,4.92
2019-03-28T15:41:22.311Z,3.67
2019-03-28T15:46:25.870Z,3.65
2019-03-28T15:51:29.324Z,3.57
2019-03-28T15:56:32.870Z,3.75
2019-03-28T16:01:36.334Z,2.63
2019-03-28T16:06:39.798Z,2.70
2019-03-28T16:11:43.265Z,3.47
2019-03-28T16:16:46.723Z,2.45
2019-03-28T16:21:50.258Z,2.30
2019-03-28T16:26:53.789Z,2.67
2019-03-28T16:31:57.249Z,2.22
2019-03-28T16:37:01.725Z,2.35
2019-03-28T16:42:05.449Z,3.00
2019-03-28T16:47:08.916Z,2.05
2019-03-28T16:52:12.377Z,3.00
2019-03-28T16:57:15.838Z,3.60
2019-03-28T17:02:19.311Z,3.08
2019-03-28T17:07:25.647Z,3.60
2019-03-28T17:12:29.152Z,2.60
2019-03-28T17:17:32.616Z,3.63
2019-03-28T17:22:36.082Z,4.20
2019-03-28T17:27:39.551Z,5.42
2019-03-28T17:32:43.089Z,5.37
2019-03-28T17:37:46.553Z,4.53
2019-03-28T17:42:50.189Z,4.50
2019-03-28T17:47:53.853Z,4.07
2019-03-28T17:52:57.379Z,4.20
2019-03-28T17:58:00.847Z,4.65
2019-03-28T18:03:09.576Z,4.25
2019-03-28T18:08:09.502Z,4.15
2019-03-28T18:13:12.965Z,4.08
2019-03-28T18:18:16.429Z,3.83
2019-03-28T18:23:19.887Z,3.20
2019-03-28T18:28:23.340Z,3.22
2019-03-28T18:33:27.583Z,3.37
2019-03-28T18:38:31.097Z,3.27
2019-03-28T18:43:34.602Z,3.12
2019-03-28T18:48:38.490Z,2.83
2019-03-28T18:53:42.088Z,2.63
2019-03-28T18:58:45.549Z,3.15
2019-03-28T19:03:49.014Z,2.72
2019-03-28T19:08:53.655Z,2.83
2019-03-28T19:13:57.216Z,2.60
2019-03-28T19:19:00.681Z,2.50
2019-03-28T19:24:04.307Z,2.05
2019-03-28T19:29:07.774Z,2.03
2019-03-28T19:34:11.236Z,2.72
2019-03-28T19:39:17.739Z,2.20
2019-03-28T19:44:21.270Z,2.30
2019-03-28T19:49:24.730Z,2.30
2019-03-28T19:54:28.190Z,1.82
2019-03-28T19:59:31.651Z,2.00
2019-03-28T20:04:35.115Z,1.73
2019-03-28T20:09:38.572Z,1.90
2019-03-28T20:14:42.034Z,1.75
2019-03-28T20:19:45.496Z,1.70
2019-03-28T20:24:48.952Z,1.40
2019-03-28T20:29:52.409Z,1.67
2019-03-28T20:34:56.202Z,1.52
2019-03-28T20:39:59.876Z,1.50
2019-03-28T20:45:03.616Z,1.90
2019-03-28T20:50:07.718Z,1.50
2019-03-28T20:55:11.160Z,1.70
2019-03-28T21:00:15.463Z,1.65
2019-03-28T21:05:18.915Z,1.30
2019-03-28T21:10:25.908Z,1.63
2019-03-28T21:15:29.363Z,1.87
2019-03-28T21:20:32.826Z,1.82
2019-03-28T21:25:36.284Z,1.32
2019-03-28T21:30:47.150Z,1.33
2019-03-28T21:35:44.936Z,1.80
2019-03-28T21:40:48.390Z,1.62
2019-03-28T21:45:51.854Z,1.67
2019-03-28T21:50:55.312Z,1.22
2019-03-28T21:55:58.767Z,1.40
2019-03-28T22:01:02.223Z,1.45
2019-03-28T22:06:05.683Z,1.70
2019-03-28T22:11:09.144Z,1.20
2019-03-28T22:16:12.604Z,1.85
2019-03-28T22:21:16.070Z,1.55
2019-03-28T22:26:19.538Z,1.25
2019-03-28T22:31:22.994Z,1.30
2019-03-28T22:36:26.453Z,1.25
2019-03-28T22:41:29.916Z,1.53
2019-03-28T22:46:33.371Z,1.60
2019-03-28T22:51:36.828Z,1.47
2019-03-28T22:56:40.288Z,1.20
2019-03-28T23:01:43.745Z,1.27
2019-03-28T23:06:47.206Z,1.32
2019-03-28T23:11:50.667Z,1.27
2019-03-28T23:16:54.887Z,1.17
2019-03-28T23:21:58.563Z,1.10
2019-03-28T23:27:02.028Z,1.27
2019-03-28T23:32:05.488Z,1.22
2019-03-28T23:37:08.958Z,1.12
2019-03-28T23:42:12.454Z,1.32
2019-03-28T23:47:16.746Z,1.50
2019-03-28T23:52:20.210Z,1.10
2019-03-28T23:57:24.004Z,1.00
